עמוד ראשי
METAR-TAF:

METAR-TAF

שדות תעופה :

Limón, קוסטה ריקה

קו רוחב: 10-00N, קו אורך: 083-03W, גובה: 5מטר

תצפית מזג אוויר נוכחית

הדו"ח נערך לפני 6 שעות ו 43דקות, בשעה 00:00 UTC
רוח רגועה
טמפרטורת 26 צלסיוס
לחות 94%
לחץ 1011 hPa
ראות: 5000מטר
עננים פזורים בגובה 1500רגל
עננים בינוניים בגובה 11000רגל
טפטוף,

METAR: MRLM 200000Z 00000KT 5000 DZ SCT015 BKN110 26/25 A2985

זמן: 00:43 (06:43 UTC)

תחזית

הדו"ח נערך לפני 53דקות, בשעה 05:50 UTC
תחזית בתוקף מ 20 ב 06 UTC עד 21 ב 06 UTC
רוח 5קשר מכיוון דרום-מערב
ראות 10 קילומטר או יותר
עננים פזורים בגובה 2000רגל
זמנית מ -
20 ב 06 UTC עד 20 ב 10 UTC
ראות: 5000מטר
עננים בינוניים בגובה 1000רגל
גשם
יעשה מ
20 ב 15 UTC עד 20 ב 18 UTC
רוח 5קשר מכיוון מזרח/צפון-מזרח
יעשה מ
21 ב 00 UTC עד 21 ב 03 UTC
רוח 5קשר מכיוון מערב/דרום-מערב

TAF: MRLM 200550Z 2006/2106 23005KT 9999 SCT020 TX30/2021Z TN22/2011Z TEMPO 2006/2010 5000 RA BKN010 BECMG 2015/2018 06005KT BECMG 2100/2103 25005KT

תצפיות ותחזיות מזג אוויר לגבי יותר מ- 4,000 שדות תעופה ברחבי העולם. דוחות METAR ו- TAF.

התחנות הזמינות מסומנות בנקודות צהובות ואדומות על גבי המפה.

העבר את העכבר לנקודה הצבעונית על מנת לראות את שם התחנה.

לאחר מכן, לחץ כדי לראות את תוכן ואת תחזיות מזג האוויר.

כדי לשנות את המפה: לחץ על הכפתורים הירוקים עם הפלוס השחור כדי להתקרב; על הכפתור הירוק עם המקף כדי להתרחק; או בחיצים הירוקים למפות סמוכות.


METAR-TAF: